Time;durP1;ratioP1;P1;durP2;ratioP2;P2;SDS_P1;SDS_P2;PMS_P1;PMS_P2;Temp;Humidity;BMP_temperature;BMP_pressure;BME280_temperature;BME280_humidity;BME280_pressure;Samples;Min_cycle;Max_cycle;Signal;HPM_P1;HPM_P2
2022/07/02 00:00:35;;;;;;;10.38;3.47;;;28.30;99.90;;;;;;4142629;28;20145;-65
2022/07/02 00:02:42;;;;;;;5.90;3.20;;;28.30;99.90;;;;;;4143696;28;20038;-66
2022/07/02 00:04:51;;;;;;;5.13;2.70;;;28.40;99.90;;;;;;4142949;28;20042;-66
2022/07/02 00:06:58;;;;;;;5.22;2.80;;;28.30;99.90;;;;;;4141638;28;20284;-66
2022/07/02 00:09:05;;;;;;;5.18;2.75;;;28.30;99.90;;;;;;4165651;28;20057;-66
2022/07/02 00:11:10;;;;;;;7.50;2.80;;;28.30;99.90;;;;;;4175073;28;20119;-66
2022/07/02 00:13:18;;;;;;;5.45;3.03;;;28.40;99.90;;;;;;4176627;28;20384;-66
2022/07/02 00:15:28;;;;;;;5.03;3.05;;;28.40;99.90;;;;;;4176654;28;20794;-65
2022/07/02 00:17:33;;;;;;;3.53;2.60;;;28.40;99.90;;;;;;4178824;28;20090;-66
2022/07/02 00:19:40;;;;;;;4.38;2.72;;;28.30;99.90;;;;;;4146126;28;20105;-66
2022/07/02 00:21:47;;;;;;;5.88;3.28;;;28.40;99.90;;;;;;4129532;28;20141;-66
2022/07/02 00:23:52;;;;;;;7.78;4.10;;;28.50;99.90;;;;;;4129590;28;20847;-67
2022/07/02 00:26:03;;;;;;;7.72;3.35;;;28.40;99.90;;;;;;4145086;28;20489;-66
2022/07/02 00:28:11;;;;;;;6.85;3.28;;;28.40;99.90;;;;;;4125790;28;20120;-67
2022/07/02 00:30:16;;;;;;;6.88;3.40;;;28.40;99.90;;;;;;4133294;28;20049;-66
2022/07/02 00:32:22;;;;;;;6.35;3.35;;;28.40;99.90;;;;;;4110047;28;20066;-66
2022/07/02 00:34:27;;;;;;;8.13;3.83;;;28.40;99.90;;;;;;4125483;28;20074;-65
2022/07/02 00:36:32;;;;;;;9.77;3.63;;;28.50;99.90;;;;;;4125446;28;20057;-66
2022/07/02 00:38:39;;;;;;;9.43;3.42;;;28.50;99.90;;;;;;4141460;28;20526;-66
2022/07/02 00:40:45;;;;;;;6.00;3.65;;;28.60;99.90;;;;;;4141973;28;20045;-66
2022/07/02 00:42:50;;;;;;;6.55;3.30;;;28.60;99.90;;;;;;4121382;28;20125;-67
2022/07/02 00:44:57;;;;;;;6.50;3.25;;;28.60;99.90;;;;;;4149793;28;20053;-66
2022/07/02 00:47:05;;;;;;;5.78;3.30;;;28.60;99.90;;;;;;4156878;28;20512;-65
2022/07/02 00:49:09;;;;;;;6.85;3.47;;;28.60;99.90;;;;;;4142056;28;20504;-66
2022/07/02 00:51:17;;;;;;;7.30;3.22;;;28.70;99.90;;;;;;4141932;28;20080;-66
2022/07/02 00:53:24;;;;;;;9.52;3.63;;;28.70;99.90;;;;;;4131354;28;20045;-66
2022/07/02 00:55:32;;;;;;;6.82;3.33;;;28.70;99.90;;;;;;4174346;28;20040;-67
2022/07/02 00:57:38;;;;;;;8.27;3.47;;;28.70;99.90;;;;;;4174797;28;20037;-69
2022/07/02 00:59:45;;;;;;;6.68;3.92;;;28.70;99.90;;;;;;4176180;28;20434;-66
2022/07/02 01:01:50;;;;;;;6.43;3.00;;;28.80;99.90;;;;;;4178093;28;20091;-67
2022/07/02 01:03:58;;;;;;;7.07;3.50;;;28.70;99.90;;;;;;4175574;28;20036;-67
2022/07/02 01:06:03;;;;;;;8.43;3.97;;;28.80;99.90;;;;;;4167149;28;20037;-66
2022/07/02 01:10:27;;;;;;;7.20;3.70;;;28.90;99.90;;;;;;4156639;28;20049;-66
2022/07/02 01:12:35;;;;;;;7.43;3.45;;;28.90;99.90;;;;;;4159706;28;20139;-67
2022/07/02 01:14:40;;;;;;;7.13;3.60;;;28.90;99.90;;;;;;4175367;28;20076;-66
2022/07/02 01:16:49;;;;;;;9.43;3.67;;;28.90;99.90;;;;;;4113974;28;20102;-67
2022/07/02 01:18:57;;;;;;;6.57;3.67;;;28.90;99.90;;;;;;4124463;28;20054;-67
2022/07/02 01:21:01;;;;;;;7.80;3.78;;;29.00;99.90;;;;;;4103212;28;20057;-66
2022/07/02 01:23:08;;;;;;;6.13;3.45;;;29.00;99.90;;;;;;4105862;28;20635;-66
2022/07/02 01:25:14;;;;;;;9.55;4.25;;;29.00;99.90;;;;;;4123095;28;20038;-66
2022/07/02 01:27:20;;;;;;;6.95;3.53;;;29.10;99.90;;;;;;4098430;28;20051;-66
2022/07/02 01:29:27;;;;;;;6.53;3.45;;;29.10;99.90;;;;;;4124303;28;20050;-67
2022/07/02 01:31:31;;;;;;;7.70;3.30;;;29.10;99.90;;;;;;4110110;28;20082;-67
2022/07/02 01:33:36;;;;;;;9.70;3.50;;;29.10;99.90;;;;;;4124864;28;20042;-67
2022/07/02 01:35:40;;;;;;;6.72;3.25;;;29.10;99.90;;;;;;4125841;28;20050;-66
2022/07/02 01:37:46;;;;;;;7.40;2.85;;;29.10;99.90;;;;;;4148472;28;20045;-67
2022/07/02 01:39:51;;;;;;;5.40;3.70;;;29.10;99.90;;;;;;4158562;28;20455;-66
2022/07/02 01:41:57;;;;;;;7.28;3.28;;;29.10;99.90;;;;;;4126133;28;20063;-66
2022/07/02 01:44:03;;;;;;;5.93;3.00;;;29.20;99.90;;;;;;4142920;28;20661;-65
2022/07/02 01:46:08;;;;;;;8.07;3.28;;;29.20;99.90;;;;;;4159162;28;20136;-67
2022/07/02 01:48:14;;;;;;;5.70;3.42;;;29.30;99.90;;;;;;4164054;28;20057;-66
2022/07/02 01:50:20;;;;;;;8.48;3.42;;;29.30;99.90;;;;;;4161614;28;20099;-66
2022/07/02 01:52:28;;;;;;;7.20;3.72;;;29.40;99.90;;;;;;4161284;28;20432;-67
2022/07/02 01:54:35;;;;;;;8.02;3.38;;;29.30;99.90;;;;;;4158948;28;20128;-67
2022/07/02 01:56:44;;;;;;;7.85;3.03;;;29.40;99.90;;;;;;4161069;28;20068;-67
2022/07/02 01:58:49;;;;;;;4.45;3.40;;;29.40;99.90;;;;;;4160042;28;20053;-66
2022/07/02 02:00:56;;;;;;;8.20;3.33;;;29.50;99.90;;;;;;4129855;28;20053;-66
2022/07/02 02:03:02;;;;;;;5.32;3.20;;;29.60;99.90;;;;;;4176512;28;20077;-66
2022/07/02 02:05:07;;;;;;;8.25;3.00;;;29.60;99.90;;;;;;4177386;28;20041;-66
2022/07/02 02:07:13;;;;;;;9.45;3.55;;;29.60;99.90;;;;;;4158547;28;20042;-66
2022/07/02 02:09:21;;;;;;;6.85;3.25;;;29.70;99.90;;;;;;4176602;28;20447;-66
2022/07/02 02:11:26;;;;;;;5.75;3.10;;;29.70;99.90;;;;;;4176497;28;20047;-66
2022/07/02 02:13:32;;;;;;;4.50;3.03;;;29.80;99.90;;;;;;4143338;28;20056;-66
2022/07/02 02:15:38;;;;;;;6.15;3.30;;;29.80;99.90;;;;;;4177445;28;20045;-66
2022/07/02 02:17:45;;;;;;;8.70;3.65;;;29.80;99.90;;;;;;4177396;28;20090;-66
2022/07/02 02:19:51;;;;;;;4.93;2.80;;;29.80;99.90;;;;;;4161017;28;20056;-66
2022/07/02 02:21:57;;;;;;;7.45;3.17;;;29.90;99.90;;;;;;4159420;28;20041;-67
2022/07/02 02:24:02;;;;;;;6.47;2.78;;;29.90;99.90;;;;;;4159683;28;20543;-66
2022/07/02 02:26:09;;;;;;;6.20;3.42;;;30.00;99.90;;;;;;4161038;28;20056;-66
2022/07/02 02:28:14;;;;;;;6.35;3.40;;;30.10;99.90;;;;;;4159732;28;20132;-66
2022/07/02 02:30:19;;;;;;;7.30;3.53;;;30.10;99.90;;;;;;4160796;28;20042;-66
2022/07/02 02:32:25;;;;;;;9.30;3.28;;;30.20;99.90;;;;;;4175768;28;20045;-66
2022/07/02 02:34:30;;;;;;;4.53;2.55;;;30.30;99.90;;;;;;4175788;28;20053;-65
2022/07/02 02:36:35;;;;;;;9.40;3.17;;;30.30;99.90;;;;;;4176636;28;20048;-62
2022/07/02 02:38:41;;;;;;;7.13;3.03;;;30.50;99.90;;;;;;4176410;28;20473;-65
2022/07/02 02:40:47;;;;;;;4.82;2.47;;;30.40;99.90;;;;;;4174624;28;20136;-63
2022/07/02 02:42:53;;;;;;;6.30;2.92;;;30.50;99.90;;;;;;4175759;28;20052;-64
2022/07/02 02:45:00;;;;;;;5.15;2.70;;;30.50;99.70;;;;;;4174539;28;20523;-64
2022/07/02 02:47:05;;;;;;;6.47;2.83;;;30.50;99.90;;;;;;4174583;28;20439;-64
2022/07/02 02:49:09;;;;;;;5.82;2.53;;;30.60;99.90;;;;;;4172721;28;20057;-64
2022/07/02 02:51:21;;;;;;;5.25;2.70;;;30.70;99.90;;;;;;4176211;28;20051;-64
2022/07/02 02:53:27;;;;;;;5.65;2.80;;;30.70;99.80;;;;;;4175594;28;20499;-65
2022/07/02 02:55:38;;;;;;;5.53;2.70;;;30.60;99.80;;;;;;4177110;28;20077;-64
2022/07/02 02:57:45;;;;;;;6.40;2.63;;;30.70;99.60;;;;;;4158198;28;20050;-64
2022/07/02 02:59:51;;;;;;;6.18;2.60;;;30.70;99.30;;;;;;4177369;28;20068;-64
2022/07/02 03:01:55;;;;;;;5.93;2.80;;;30.70;99.30;;;;;;4177489;28;20040;-64
2022/07/02 03:04:01;;;;;;;5.93;2.70;;;30.80;99.50;;;;;;4177463;28;20052;-64
2022/07/02 03:06:08;;;;;;;7.13;2.75;;;30.80;99.70;;;;;;4177375;28;20049;-64
2022/07/02 03:08:12;;;;;;;4.55;2.75;;;30.80;99.50;;;;;;4177083;28;20045;-64
2022/07/02 03:10:19;;;;;;;7.90;2.97;;;30.90;99.20;;;;;;4176048;28;20127;-64
2022/07/02 03:12:25;;;;;;;6.60;2.80;;;31.00;99.30;;;;;;4177396;28;20450;-64
2022/07/02 03:14:30;;;;;;;7.57;2.83;;;31.10;99.20;;;;;;4177347;28;20573;-64
2022/07/02 03:16:36;;;;;;;4.07;2.58;;;31.10;98.90;;;;;;4176767;28;20467;-65
2022/07/02 03:18:46;;;;;;;5.43;2.25;;;31.10;98.80;;;;;;4177299;28;20091;-64
2022/07/02 03:20:50;;;;;;;6.78;2.70;;;31.20;98.70;;;;;;4177263;28;20053;-63
2022/07/02 03:22:57;;;;;;;6.13;2.53;;;31.20;98.80;;;;;;4180198;28;20041;-63
2022/07/02 03:25:03;;;;;;;5.30;2.25;;;31.20;98.30;;;;;;4180005;28;20495;-63
2022/07/02 03:27:08;;;;;;;4.88;2.22;;;31.20;98.50;;;;;;4180136;28;20055;-63
2022/07/02 03:29:14;;;;;;;7.38;2.75;;;31.30;98.20;;;;;;4180095;28;20123;-64
2022/07/02 03:31:21;;;;;;;7.93;2.70;;;31.40;98.20;;;;;;4179808;28;20045;-64
2022/07/02 03:33:26;;;;;;;3.00;2.10;;;31.40;97.90;;;;;;4180202;28;20514;-64
2022/07/02 03:35:32;;;;;;;4.32;1.92;;;31.40;97.30;;;;;;4179836;28;20111;-64
2022/07/02 03:37:39;;;;;;;3.78;1.98;;;31.40;96.30;;;;;;4179938;28;20055;-65
2022/07/02 03:39:43;;;;;;;3.97;1.80;;;31.30;96.30;;;;;;4178868;28;20048;-64
2022/07/02 03:41:51;;;;;;;3.92;2.10;;;31.40;96.20;;;;;;4178715;28;20083;-64
2022/07/02 03:43:55;;;;;;;4.80;2.35;;;31.40;96.50;;;;;;4179559;28;20417;-64
2022/07/02 03:45:59;;;;;;;4.70;2.30;;;31.50;96.70;;;;;;4180101;28;20111;-64
2022/07/02 03:48:06;;;;;;;4.60;2.20;;;31.50;96.70;;;;;;4179583;28;20119;-64
2022/07/02 03:50:12;;;;;;;5.60;2.40;;;31.50;96.70;;;;;;4179694;28;20075;-64
2022/07/02 03:52:17;;;;;;;4.18;2.50;;;31.50;96.90;;;;;;4178518;28;20095;-65
2022/07/02 03:54:23;;;;;;;4.85;2.10;;;31.50;96.40;;;;;;4178368;28;20060;-65
2022/07/02 03:56:30;;;;;;;4.97;2.20;;;31.50;96.30;;;;;;4178369;28;20083;-65
2022/07/02 03:58:34;;;;;;;4.97;2.20;;;31.60;96.60;;;;;;4179743;28;20128;-64
2022/07/02 04:00:41;;;;;;;3.45;1.90;;;31.70;96.40;;;;;;4179134;28;20396;-64
2022/07/02 04:02:47;;;;;;;3.78;2.20;;;31.70;95.40;;;;;;4179497;28;20468;-65
2022/07/02 04:04:53;;;;;;;5.50;2.08;;;31.60;96.10;;;;;;4179529;28;20579;-64
2022/07/02 04:07:00;;;;;;;2.95;2.05;;;31.80;96.10;;;;;;4178181;28;20036;-64
2022/07/02 04:09:07;;;;;;;4.97;1.80;;;31.90;96.00;;;;;;4179346;28;20530;-65
2022/07/02 04:11:11;;;;;;;4.75;2.08;;;32.00;95.90;;;;;;4179304;28;20045;-64
2022/07/02 04:13:18;;;;;;;3.10;1.88;;;32.20;96.00;;;;;;4144960;28;20515;-65
2022/07/02 04:15:22;;;;;;;3.38;1.85;;;32.30;95.70;;;;;;4179202;28;20348;-65
2022/07/02 04:17:27;;;;;;;3.00;1.85;;;32.30;94.90;;;;;;4178118;28;20044;-66
2022/07/02 04:19:33;;;;;;;2.85;1.60;;;32.30;94.70;;;;;;4144062;28;20077;-65
2022/07/02 04:21:39;;;;;;;3.30;1.60;;;32.20;94.70;;;;;;4179172;28;20041;-64
2022/07/02 04:23:43;;;;;;;4.70;1.90;;;32.30;95.10;;;;;;4177674;28;20049;-64
2022/07/02 04:25:50;;;;;;;4.53;2.00;;;32.40;95.10;;;;;;4176815;28;20045;-64
2022/07/02 04:27:56;;;;;;;5.32;1.77;;;32.60;95.40;;;;;;4178047;28;20135;-64
2022/07/02 04:30:00;;;;;;;4.53;1.95;;;32.60;93.70;;;;;;4178183;28;20036;-64
2022/07/02 04:32:11;;;;;;;2.30;1.63;;;32.50;93.70;;;;;;4178762;28;20102;-64
2022/07/02 04:34:18;;;;;;;6.43;1.70;;;32.70;93.70;;;;;;4176843;28;20037;-64
2022/07/02 04:36:22;;;;;;;4.43;2.15;;;32.70;93.60;;;;;;4179023;28;20045;-64
2022/07/02 04:38:29;;;;;;;3.10;1.80;;;32.80;94.00;;;;;;4177610;28;20107;-63
2022/07/02 04:40:35;;;;;;;2.55;1.65;;;32.90;93.90;;;;;;4178584;28;20149;-64
2022/07/02 04:42:39;;;;;;;4.07;2.20;;;33.00;93.10;;;;;;4177491;28;20491;-63
2022/07/02 04:44:46;;;;;;;4.95;2.28;;;33.10;93.60;;;;;;4178902;28;20480;-64
2022/07/02 04:46:53;;;;;;;4.28;2.15;;;33.30;93.70;;;;;;4178451;28;20476;-64
2022/07/02 04:48:57;;;;;;;4.35;2.30;;;33.40;93.30;;;;;;4178793;28;20160;-64
2022/07/02 04:51:03;;;;;;;6.30;3.33;;;33.50;93.20;;;;;;4178688;28;20411;-63
2022/07/02 04:53:10;;;;;;;5.80;3.88;;;33.50;92.90;;;;;;4178795;28;20037;-64
2022/07/02 04:55:15;;;;;;;5.40;2.78;;;33.50;92.60;;;;;;4177393;28;20442;-63
2022/07/02 04:57:22;;;;;;;5.05;2.20;;;33.50;92.50;;;;;;4178776;28;20499;-64
2022/07/02 04:59:29;;;;;;;3.97;1.90;;;33.60;92.90;;;;;;4177390;28;20095;-63
2022/07/02 05:01:40;;;;;;;4.05;1.70;;;33.70;91.70;;;;;;4178216;28;20063;-63
2022/07/02 05:03:46;;;;;;;2.72;1.63;;;33.80;91.40;;;;;;4142789;28;20064;-63
2022/07/02 05:05:52;;;;;;;3.35;1.80;;;33.60;91.80;;;;;;4193528;28;20050;-64
2022/07/02 05:07:57;;;;;;;4.78;1.73;;;33.70;92.20;;;;;;4176959;28;20049;-64
2022/07/02 05:10:04;;;;;;;3.88;1.60;;;33.80;91.90;;;;;;4178771;28;20080;-64
2022/07/02 05:12:12;;;;;;;2.83;1.60;;;33.80;91.90;;;;;;4177384;28;20045;-63
2022/07/02 05:14:17;;;;;;;5.20;1.98;;;33.80;92.00;;;;;;4177496;28;20059;-63
2022/07/02 05:16:24;;;;;;;3.35;1.73;;;33.70;92.00;;;;;;4178257;28;20399;-63
2022/07/02 05:18:31;;;;;;;3.20;1.48;;;33.50;91.60;;;;;;4177261;28;20123;-63
2022/07/02 05:20:37;;;;;;;3.83;1.80;;;33.40;91.80;;;;;;4170424;28;20045;-64
2022/07/02 05:22:43;;;;;;;2.83;1.70;;;33.40;92.40;;;;;;4176823;28;20045;-64
2022/07/02 05:24:48;;;;;;;3.53;2.10;;;33.30;91.90;;;;;;4166340;28;20049;-64
2022/07/02 05:26:53;;;;;;;4.63;2.83;;;33.20;91.90;;;;;;4178143;28;20110;-64
2022/07/02 05:29:00;;;;;;;3.20;2.28;;;33.20;91.80;;;;;;4139198;28;20241;-64
2022/07/02 05:31:06;;;;;;;3.17;2.20;;;33.20;92.40;;;;;;4166326;28;20068;-64
2022/07/02 05:33:12;;;;;;;3.10;1.85;;;33.30;92.20;;;;;;4177212;28;20049;-64
2022/07/02 05:35:20;;;;;;;3.63;1.80;;;33.30;92.40;;;;;;4128147;28;20145;-64
2022/07/02 05:37:25;;;;;;;3.83;2.10;;;33.30;92.30;;;;;;4177983;28;20060;-63
2022/07/02 05:39:31;;;;;;;3.83;2.08;;;33.40;92.50;;;;;;4178248;28;20056;-63
2022/07/02 05:41:37;;;;;;;3.72;2.33;;;33.40;92.50;;;;;;4178059;28;20051;-63
2022/07/02 05:43:43;;;;;;;4.03;1.77;;;33.40;92.50;;;;;;4177641;28;20061;-63
2022/07/02 05:45:48;;;;;;;4.93;1.80;;;33.40;92.60;;;;;;4176657;28;20095;-64
2022/07/02 05:47:55;;;;;;;3.08;1.80;;;33.40;92.80;;;;;;4159156;28;20392;-64
2022/07/02 05:50:02;;;;;;;1.80;1.45;;;33.50;92.50;;;;;;4176695;28;20072;-63
2022/07/02 05:52:07;;;;;;;8.98;2.03;;;33.50;92.30;;;;;;4176685;28;20037;-64
2022/07/02 05:54:14;;;;;;;4.97;1.90;;;33.50;92.80;;;;;;4177905;28;20095;-63
2022/07/02 05:56:20;;;;;;;3.58;1.80;;;33.40;92.40;;;;;;4176544;28;20516;-63
2022/07/02 05:58:25;;;;;;;3.25;1.70;;;33.50;92.70;;;;;;4160582;28;20070;-63
2022/07/02 06:00:32;;;;;;;5.95;1.75;;;33.50;92.60;;;;;;4177097;28;20045;-63
2022/07/02 06:02:36;;;;;;;3.38;1.60;;;33.50;92.50;;;;;;4177867;28;20087;-63
2022/07/02 06:09:35;;;;;;;5.20;1.98;;;33.30;92.90;;;;;;4142795;28;20042;-63
2022/07/02 06:11:39;;;;;;;4.05;2.22;;;33.20;92.80;;;;;;4142742;28;20052;-63
2022/07/02 06:13:44;;;;;;;3.80;1.80;;;33.10;92.40;;;;;;4142391;28;20520;-63
2022/07/02 06:15:52;;;;;;;2.33;1.73;;;33.00;92.30;;;;;;4142500;28;20472;-64
2022/07/02 06:18:00;;;;;;;3.45;1.80;;;33.10;92.50;;;;;;4142570;28;20054;-64
2022/07/02 06:20:06;;;;;;;4.45;2.00;;;33.10;92.60;;;;;;4142693;28;20050;-64
2022/07/02 06:22:12;;;;;;;3.40;1.75;;;33.10;92.50;;;;;;4126537;28;20077;-64
2022/07/02 06:24:17;;;;;;;2.88;1.90;;;33.10;92.50;;;;;;4142070;28;20045;-64
2022/07/02 06:26:24;;;;;;;3.47;1.70;;;33.10;92.50;;;;;;4142137;28;20045;-65
2022/07/02 06:28:30;;;;;;;3.90;1.63;;;33.10;92.30;;;;;;4126718;28;20057;-64
2022/07/02 06:30:35;;;;;;;3.08;1.58;;;33.30;92.20;;;;;;4172648;28;20041;-63
2022/07/02 06:32:41;;;;;;;3.55;1.52;;;33.40;91.70;;;;;;4142497;28;20517;-63
2022/07/02 06:34:47;;;;;;;4.00;1.60;;;33.40;91.20;;;;;;4177482;28;20045;-63
2022/07/02 06:36:52;;;;;;;2.72;1.75;;;33.50;91.70;;;;;;4177751;28;20332;-63
2022/07/02 06:39:01;;;;;;;2.92;1.40;;;33.50;91.60;;;;;;4176360;28;20045;-62
2022/07/02 06:43:25;;;;;;;2.38;1.40;;;33.30;92.00;;;;;;4177105;28;20061;-63
2022/07/02 06:45:30;;;;;;;3.90;1.70;;;33.20;91.80;;;;;;4176039;28;20041;-64
2022/07/02 06:47:39;;;;;;;5.55;1.95;;;33.10;91.70;;;;;;4177297;28;20044;-63
2022/07/02 06:49:44;;;;;;;4.65;1.98;;;33.00;91.90;;;;;;4177487;28;20103;-63
2022/07/02 06:51:51;;;;;;;3.20;1.70;;;33.00;91.80;;;;;;4126824;28;20155;-64
2022/07/02 06:54:00;;;;;;;2.10;1.45;;;32.90;92.00;;;;;;4175613;28;20055;-63
2022/07/02 06:56:05;;;;;;;6.50;1.80;;;32.90;92.00;;;;;;4176838;28;20056;-63
2022/07/02 06:58:12;;;;;;;3.28;1.58;;;33.20;91.50;;;;;;4180585;28;20049;-63
2022/07/02 07:00:21;;;;;;;4.00;1.90;;;33.50;91.60;;;;;;4178938;28;20527;-64
2022/07/02 07:02:28;;;;;;;5.05;1.92;;;33.70;91.60;;;;;;4179406;28;20091;-63
2022/07/02 07:04:34;;;;;;;4.72;1.63;;;33.80;91.20;;;;;;4178768;28;20049;-64
2022/07/02 07:06:51;;;;;;;3.20;1.50;;;33.70;91.30;;;;;;4178853;28;20072;-63
2022/07/02 07:08:58;;;;;;;3.13;1.60;;;33.60;91.00;;;;;;4180718;28;20521;-63
2022/07/02 07:11:05;;;;;;;4.18;1.50;;;33.50;90.50;;;;;;4180353;28;20852;-62
2022/07/02 07:13:12;;;;;;;3.38;1.50;;;33.50;91.20;;;;;;4180435;28;20095;-63
2022/07/02 07:15:16;;;;;;;2.38;1.38;;;33.50;91.20;;;;;;4179019;28;20079;-63
2022/07/02 07:17:22;;;;;;;2.20;1.27;;;33.40;90.90;;;;;;4179439;28;20124;-63
2022/07/02 07:19:37;;;;;;;2.95;1.52;;;33.40;91.10;;;;;;4176607;28;20075;-64
2022/07/02 07:21:42;;;;;;;4.30;1.70;;;33.50;91.10;;;;;;4178753;28;20286;-64
2022/07/02 07:23:50;;;;;;;2.22;1.52;;;33.50;90.80;;;;;;4161601;28;20396;-63
2022/07/02 07:26:11;;;;;;;3.17;1.50;;;33.50;91.10;;;;;;4177849;28;20095;-63
2022/07/02 07:28:16;;;;;;;3.50;1.30;;;33.40;91.40;;;;;;4179439;28;20098;-63
2022/07/02 07:30:23;;;;;;;4.25;1.70;;;33.40;91.50;;;;;;4179392;28;20126;-64
2022/07/02 07:32:28;;;;;;;4.00;2.25;;;33.40;91.50;;;;;;4177545;28;20041;-63
2022/07/02 07:34:33;;;;;;;4.53;1.67;;;33.40;91.70;;;;;;4176729;28;20051;-63
2022/07/02 07:36:38;;;;;;;3.17;1.45;;;33.30;91.50;;;;;;4179222;28;20072;-63
2022/07/02 07:38:42;;;;;;;3.47;1.70;;;33.30;91.80;;;;;;4179410;28;20521;-63
2022/07/02 07:40:47;;;;;;;3.08;1.42;;;33.50;91.70;;;;;;4179489;28;20428;-64
2022/07/02 07:42:52;;;;;;;2.70;1.50;;;33.50;91.10;;;;;;4180015;28;20096;-63
2022/07/02 07:44:59;;;;;;;3.28;1.65;;;33.50;91.30;;;;;;4176727;28;20045;-63
2022/07/02 07:47:03;;;;;;;2.83;1.42;;;33.50;91.90;;;;;;4180203;28;20046;-64
2022/07/02 07:49:10;;;;;;;2.90;1.10;;;33.50;91.60;;;;;;4176024;28;20045;-64
2022/07/02 07:51:16;;;;;;;2.22;1.33;;;33.50;91.60;;;;;;4176774;28;20036;-63
2022/07/02 07:53:21;;;;;;;4.32;1.50;;;33.50;91.10;;;;;;4177245;28;20118;-63
2022/07/02 07:55:27;;;;;;;2.42;1.67;;;33.50;91.40;;;;;;4178371;28;20098;-63
2022/07/02 07:57:32;;;;;;;2.47;1.70;;;33.60;91.20;;;;;;4178539;28;20496;-63
2022/07/02 07:59:36;;;;;;;3.67;1.45;;;33.80;91.10;;;;;;4177164;28;20041;-60
2022/07/02 08:01:41;;;;;;;2.13;1.25;;;33.80;90.80;;;;;;4176818;28;20051;-63
2022/07/02 08:03:48;;;;;;;2.75;1.52;;;33.80;90.70;;;;;;4179756;28;20110;-63
2022/07/02 08:05:56;;;;;;;4.22;1.35;;;33.70;90.40;;;;;;4179941;28;20049;-63
2022/07/02 08:08:01;;;;;;;2.92;1.67;;;33.60;90.80;;;;;;4173726;28;20056;-63
2022/07/02 08:10:11;;;;;;;5.78;2.30;;;33.60;90.70;;;;;;4179387;28;20049;-63
2022/07/02 08:12:16;;;;;;;4.03;2.25;;;33.60;91.00;;;;;;4180577;28;20055;-63
2022/07/02 08:14:20;;;;;;;2.35;1.40;;;33.70;90.90;;;;;;4179368;28;20057;-64
2022/07/02 08:16:26;;;;;;;2.30;1.40;;;33.60;90.50;;;;;;4179285;28;20535;-63
2022/07/02 08:18:32;;;;;;;5.80;1.50;;;33.60;90.60;;;;;;4180276;28;20044;-63
2022/07/02 08:20:42;;;;;;;3.85;1.40;;;33.60;90.90;;;;;;4180340;28;20080;-63
2022/07/02 08:22:52;;;;;;;2.67;1.85;;;33.70;91.10;;;;;;4179393;28;20053;-63
2022/07/02 08:25:07;;;;;;;4.35;1.38;;;33.80;90.70;;;;;;4180289;28;20069;-63
2022/07/02 08:27:13;;;;;;;2.00;1.15;;;33.90;91.10;;;;;;4180409;28;20071;-63
2022/07/02 08:29:21;;;;;;;1.85;1.20;;;34.00;90.70;;;;;;4178160;28;20480;-63
2022/07/02 08:31:25;;;;;;;3.15;1.40;;;33.90;90.40;;;;;;4178358;28;20080;-63
2022/07/02 08:33:32;;;;;;;3.00;1.52;;;33.90;90.20;;;;;;4178468;28;20403;-63
2022/07/02 08:35:38;;;;;;;5.72;1.40;;;34.00;90.00;;;;;;4178044;28;20060;-63
2022/07/02 08:37:43;;;;;;;3.78;1.30;;;33.90;90.40;;;;;;4177086;28;20484;-63
2022/07/02 08:39:48;;;;;;;4.10;1.80;;;33.90;90.30;;;;;;4176917;28;20041;-63
2022/07/02 08:41:54;;;;;;;3.15;1.70;;;34.00;90.40;;;;;;4176736;28;20075;-64
2022/07/02 08:44:00;;;;;;;2.65;1.50;;;33.90;90.10;;;;;;4178166;28;20071;-63
2022/07/02 08:46:06;;;;;;;2.13;1.67;;;33.80;90.00;;;;;;4127309;28;20420;-63
2022/07/02 08:48:13;;;;;;;2.30;1.70;;;33.80;90.00;;;;;;4160739;28;20444;-63
2022/07/02 08:50:17;;;;;;;6.43;3.53;;;33.80;90.50;;;;;;4177863;28;20065;-63
2022/07/02 08:52:25;;;;;;;5.15;3.70;;;33.60;90.30;;;;;;4177328;28;20091;-63
2022/07/02 08:54:33;;;;;;;4.78;2.60;;;33.60;90.90;;;;;;4178313;28;20049;-63
2022/07/02 08:56:37;;;;;;;6.38;3.35;;;33.50;91.20;;;;;;4178185;28;20037;-63
2022/07/02 08:58:44;;;;;;;5.35;3.65;;;33.60;91.10;;;;;;4142961;28;20046;-62
2022/07/02 09:00:51;;;;;;;4.85;2.50;;;33.50;90.90;;;;;;4174180;28;20047;-63
2022/07/02 09:02:57;;;;;;;3.53;2.45;;;33.60;90.80;;;;;;4167195;28;20172;-63
2022/07/02 09:05:03;;;;;;;4.88;2.00;;;33.50;90.60;;;;;;4168088;28;20049;-62
2022/07/02 09:07:10;;;;;;;2.95;2.15;;;33.50;90.20;;;;;;4171371;28;20100;-63
2022/07/02 09:09:14;;;;;;;4.05;1.65;;;33.50;90.20;;;;;;4177409;28;20148;-63
2022/07/02 09:11:21;;;;;;;4.50;1.80;;;33.50;90.60;;;;;;4161334;28;20041;-62
2022/07/02 09:13:28;;;;;;;4.15;2.08;;;33.50;90.70;;;;;;4161448;28;20120;-63
2022/07/02 09:15:34;;;;;;;7.28;2.92;;;33.50;90.70;;;;;;4177267;28;20045;-63
2022/07/02 09:17:43;;;;;;;4.63;2.42;;;33.40;90.90;;;;;;4128812;28;20073;-64
2022/07/02 09:19:47;;;;;;;4.68;2.65;;;33.40;90.70;;;;;;4127348;28;20051;-64
2022/07/02 09:21:52;;;;;;;8.65;5.22;;;33.50;90.60;;;;;;4124334;28;20054;-62
2022/07/02 09:23:58;;;;;;;7.95;5.03;;;33.40;90.60;;;;;;4143670;28;20045;-64
2022/07/02 09:26:21;;;;;;;6.50;4.57;;;33.30;90.90;;;;;;4124247;28;20039;-62
2022/07/02 09:28:32;;;;;;;3.55;3.03;;;33.30;90.70;;;;;;4126872;28;20050;-63
2022/07/02 09:30:38;;;;;;;7.30;3.42;;;33.20;90.70;;;;;;4128175;28;20054;-63
2022/07/02 09:32:46;;;;;;;13.45;9.75;;;33.10;90.80;;;;;;4143759;28;20069;-63
2022/07/02 09:34:52;;;;;;;4.45;2.75;;;33.00;91.40;;;;;;4140894;28;20057;-63
2022/07/02 09:36:57;;;;;;;3.78;1.35;;;32.50;92.80;;;;;;4142903;28;20201;-63
2022/07/02 09:39:10;;;;;;;3.35;1.35;;;32.10;92.90;;;;;;4151160;28;20053;-63
2022/07/02 09:41:23;;;;;;;2.95;1.55;;;32.20;93.30;;;;;;4152480;28;20123;-63
2022/07/02 09:43:32;;;;;;;3.63;1.80;;;32.20;93.20;;;;;;4144310;28;20168;-64
2022/07/02 09:45:38;;;;;;;3.65;1.75;;;32.30;93.40;;;;;;4144268;28;20104;-63
2022/07/02 09:47:50;;;;;;;5.43;1.60;;;32.30;92.80;;;;;;4146531;28;20101;-64
2022/07/02 09:49:55;;;;;;;3.38;1.55;;;32.40;92.60;;;;;;4178984;28;20057;-63
2022/07/02 09:52:02;;;;;;;3.78;1.70;;;32.40;92.90;;;;;;4178329;28;20051;-63
2022/07/02 09:54:07;;;;;;;3.65;1.77;;;32.40;93.20;;;;;;4177263;28;20540;-64
2022/07/02 09:56:13;;;;;;;4.63;2.17;;;32.40;93.10;;;;;;4093203;29;20050;-65
2022/07/02 09:58:25;;;;;;;4.15;1.98;;;32.50;93.20;;;;;;4132666;28;20050;-63
2022/07/02 10:00:34;;;;;;;3.97;2.35;;;32.40;92.90;;;;;;4147065;28;20412;-64
2022/07/02 10:02:40;;;;;;;8.07;2.83;;;32.50;93.10;;;;;;4120206;28;20073;-64
2022/07/02 10:04:49;;;;;;;10.40;4.45;;;32.40;93.10;;;;;;4130458;28;20137;-64
2022/07/02 10:06:53;;;;;;;8.23;4.70;;;32.40;93.10;;;;;;4143896;28;20053;-64
2022/07/02 10:09:00;;;;;;;13.13;3.78;;;32.20;93.90;;;;;;4095255;29;20474;-64
2022/07/02 10:11:08;;;;;;;7.95;2.42;;;32.10;93.80;;;;;;4145915;28;20050;-64
2022/07/02 10:13:14;;;;;;;8.00;2.53;;;31.70;93.90;;;;;;4150371;28;20132;-63
2022/07/02 10:15:21;;;;;;;4.82;2.33;;;31.60;94.10;;;;;;4148146;28;20092;-65
2022/07/02 10:17:28;;;;;;;6.15;2.95;;;31.60;94.40;;;;;;4126247;28;20058;-63
2022/07/02 10:19:33;;;;;;;6.15;2.72;;;31.60;94.30;;;;;;4151543;28;20049;-63
2022/07/02 10:21:39;;;;;;;4.57;2.33;;;31.60;94.30;;;;;;4147893;28;20060;-64
2022/07/02 10:23:46;;;;;;;5.00;2.42;;;31.70;94.10;;;;;;4150202;28;20512;-64
2022/07/02 10:25:50;;;;;;;14.50;3.85;;;31.90;94.30;;;;;;4149941;28;20436;-63
2022/07/02 10:28:00;;;;;;;6.28;2.63;;;32.00;94.00;;;;;;4129729;28;20126;-63
2022/07/02 10:30:20;;;;;;;17.15;3.17;;;32.10;93.70;;;;;;4174370;28;20040;-64
2022/07/02 10:32:53;;;;;;;7.60;2.70;;;32.10;93.70;;;;;;4179631;28;20307;-64
2022/07/02 10:35:15;;;;;;;5.07;2.30;;;32.20;93.70;;;;;;4179017;28;20231;-63
2022/07/02 10:37:22;;;;;;;6.70;2.58;;;32.20;93.40;;;;;;4178876;28;20052;-64
2022/07/02 10:39:44;;;;;;;4.45;2.53;;;32.20;93.30;;;;;;4179022;28;20045;-63
2022/07/02 10:41:49;;;;;;;9.63;3.10;;;32.20;93.20;;;;;;4193613;28;20079;-63
2022/07/02 10:43:58;;;;;;;5.40;2.30;;;32.30;93.40;;;;;;4162366;28;20549;-63
2022/07/02 10:46:09;;;;;;;6.00;2.33;;;32.30;92.90;;;;;;4178331;28;20041;-64
2022/07/02 10:48:15;;;;;;;7.65;2.92;;;32.30;93.00;;;;;;4178495;28;20045;-63
2022/07/02 10:50:27;;;;;;;12.85;3.03;;;32.30;93.00;;;;;;4181647;28;20492;-65
2022/07/02 10:52:49;;;;;;;7.72;2.70;;;32.30;93.20;;;;;;4180753;28;20522;-64
2022/07/02 10:54:55;;;;;;;5.32;2.67;;;32.20;92.90;;;;;;4181996;28;20160;-64
2022/07/02 10:57:16;;;;;;;4.25;2.55;;;32.30;93.10;;;;;;4180879;28;20128;-64
2022/07/02 10:59:43;;;;;;;7.68;2.60;;;32.20;93.10;;;;;;4178727;28;20056;-63
2022/07/02 11:02:03;;;;;;;4.15;2.13;;;32.20;92.60;;;;;;4181561;28;20049;-63
2022/07/02 11:04:10;;;;;;;6.78;2.38;;;32.20;92.40;;;;;;4180472;28;20053;-64
2022/07/02 11:06:25;;;;;;;4.78;2.20;;;32.20;92.20;;;;;;4160120;28;20046;-63
2022/07/02 11:08:50;;;;;;;3.30;1.90;;;32.10;92.00;;;;;;4143837;28;20046;-64